This is the latest recevied weather packets stored in our database for station/object JH1LWU-13. If no packets are shown the sender has not sent any weather packets the latest 10 day(s).
| Time | Temp. | Humidity | Pressure | Rain* | Wind** | Luminosity | Snow |
|---|---|---|---|---|---|---|---|
| 1777622490 | 18.89° C | 75% | 989 hPa | 0 mm | - | - | - |
| 1777620689 | 18.89° C | 74% | 989 hPa | 0 mm | - | - | - |
| 1777618888 | 18.33° C | 75% | 991 hPa | 0 mm | - | - | - |
| 1777617087 | 18.33° C | 73% | 991 hPa | 0 mm | - | - | - |
| 1777615286 | 18.89° C | 73% | 992 hPa | 0 mm | - | - | - |
| 1777613485 | 17.78° C | 76% | 993 hPa | 0 mm | - | - | - |
| 1777611684 | 16.67° C | 79% | 992 hPa | 0 mm | - | - | - |
| 1777609883 | 15° C | 81% | 994 hPa | 0 mm | - | - | - |
| 1777608082 | 13.89° C | 81% | 994 hPa | 0 mm | - | - | - |
| 1777606281 | 13.89° C | 81% | 996 hPa | 0 mm | - | - | - |
| 1777604480 | 13.33° C | 81% | 997 hPa | 0 mm | - | - | - |
| 1777602679 | 13.33° C | 81% | 1000 hPa | 0 mm | - | - | - |
| 1777600878 | 12.78° C | 81% | 998 hPa | 0 mm | - | - | - |
| 1777599077 | 12.22° C | 82% | 1000 hPa | 0 mm | - | - | - |
| 1777597276 | 11.67° C | 82% | 1000 hPa | 0 mm | - | - | - |
| 1777595475 | 11.67° C | 82% | 1001 hPa | 0 mm | - | - | - |
| 1777593674 | 11.67° C | 82% | 1002 hPa | 0 mm | - | - | - |
| 1777591873 | 11.67° C | 82% | 1003 hPa | 0 mm | - | - | - |
| 1777590072 | 11.11° C | 82% | 1005 hPa | 0 mm | - | - | - |
| 1777588271 | 11.11° C | 82% | 1005 hPa | 0 mm | - | - | - |
| 1777586470 | 11.11° C | 82% | 1005 hPa | 0 mm | - | - | - |
| 1777584669 | 11.11° C | 81% | 1007 hPa | 0 mm | - | - | - |
| 1777582868 | 11.11° C | 81% | 1005 hPa | 0 mm | - | - | - |
| 1777581067 | 10.56° C | 80% | 1007 hPa | 0 mm | - | - | - |
| 1777579266 | 10.56° C | 81% | 1008 hPa | 0 mm | - | - | - |
* Rain latest hour (hover to see other rain measurements)
** Current wind speed in m/s (hover to see current wind gust speed)